Time;durP1;ratioP1;P1;durP2;ratioP2;P2;SDS_P1;SDS_P2;PMS_P1;PMS_P2;Temp;Humidity;BMP_temperature;BMP_pressure;BME280_temperature;BME280_humidity;BME280_pressure;Samples;Min_cycle;Max_cycle;Signal;HPM_P1;HPM_P2
2022/01/14 00:02:13;;;;;;;;;39.75;34.00;;;;;4.64;69.89;103128.16;4977527;28;45473;-51
2022/01/14 00:04:38;;;;;;;;;41.75;35.75;;;;;4.44;70.45;103096.00;4977231;28;45406;-51
2022/01/14 00:07:04;;;;;;;;;38.25;34.25;;;;;4.71;70.11;103134.88;4960280;28;45406;-52
2022/01/14 00:09:31;;;;;;;;;41.50;38.25;;;;;4.71;70.42;103141.19;4977004;28;45969;-52
2022/01/14 00:11:58;;;;;;;;;43.20;37.80;;;;;4.70;70.22;103138.59;4975087;28;45325;-51
2022/01/14 00:14:43;;;;;;;;;47.00;35.80;;;;;4.71;71.13;103137.59;4977676;28;45348;-52
2022/01/14 00:17:13;;;;;;;;;37.80;34.60;;;;;4.69;71.00;103137.72;4970111;28;45610;-54
2022/01/14 00:19:39;;;;;;;;;44.20;38.80;;;;;4.70;71.08;103131.28;4975701;28;46623;-52
2022/01/14 00:22:09;;;;;;;;;36.80;32.80;;;;;4.68;71.20;103129.66;4971313;28;45854;-52
2022/01/14 00:33:05;;;;;;;;;34.40;33.20;;;;;4.61;70.47;103123.81;4976356;28;45312;-52
2022/01/14 00:35:31;;;;;;;;;39.40;34.00;;;;;4.66;70.71;103137.97;4976844;28;45482;-51
2022/01/14 00:37:57;;;;;;;;;34.20;32.20;;;;;4.65;70.88;103136.22;4974934;28;45431;-51
2022/01/14 00:40:22;;;;;;;;;41.00;31.00;;;;;4.59;71.06;103120.34;4976625;28;46153;-52
2022/01/14 00:42:48;;;;;;;;;44.75;37.00;;;;;4.62;70.17;103117.38;4976653;28;45432;-53
2022/01/14 00:45:14;;;;;;;;;40.25;34.00;;;;;4.64;70.71;103120.00;4976512;28;45415;-50
2022/01/14 00:47:40;;;;;;;;;54.00;37.25;;;;;4.65;70.53;103121.75;4976414;28;45588;-52
2022/01/14 00:50:07;;;;;;;;;39.50;37.50;;;;;4.64;70.25;103117.28;4975056;28;46127;-50
2022/01/14 00:52:33;;;;;;;;;42.80;34.60;;;;;4.59;70.24;103113.03;4976559;28;45399;-51
2022/01/14 00:54:59;;;;;;;;;34.40;30.80;;;;;3.97;70.79;103010.66;4977316;28;45409;-53
2022/01/14 00:59:14;;;;;;;;;38.25;33.00;;;;;4.64;71.07;103128.16;4980420;28;45253;-51
2022/01/14 01:00:13;;;;;;;;;45.00;36.40;;;;;4.62;70.12;103128.28;4975908;28;45287;-53
2022/01/14 01:02:39;;;;;;;;;33.00;31.80;;;;;4.60;70.74;103119.38;4976623;28;45230;-49
2022/01/14 01:05:05;;;;;;;;;41.50;33.25;;;;;4.61;70.75;103126.53;4975421;28;45281;-53
2022/01/14 01:07:30;;;;;;;;;40.50;38.75;;;;;4.60;70.36;103116.66;4959363;28;45560;-53
2022/01/14 01:09:55;;;;;;;;;38.00;31.25;;;;;4.24;69.92;103066.69;4958743;28;46904;-54
2022/01/14 01:12:36;;;;;;;;;38.25;33.25;;;;;4.61;70.53;103119.22;4958785;28;45531;-51
2022/01/14 01:15:06;;;;;;;;;34.80;33.60;;;;;4.10;70.64;103048.69;4976760;28;45320;-53
2022/01/14 01:17:32;;;;;;;;;43.00;33.60;;;;;4.53;70.22;103120.81;4960685;28;45609;-55
2022/01/14 01:19:57;;;;;;;;;36.20;31.00;;;;;4.59;70.38;103132.09;4959372;28;45829;-51
2022/01/14 01:22:23;;;;;;;;;36.00;32.50;;;;;4.21;70.77;103070.50;4974915;28;45579;-49
2022/01/14 01:24:49;;;;;;;;;40.00;35.75;;;;;4.38;70.24;103093.72;4976487;28;45407;-48
2022/01/14 01:27:16;;;;;;;;;39.50;32.50;;;;;4.59;70.62;103123.06;4958230;28;45422;-51
2022/01/14 01:29:49;;;;;;;;;43.20;33.40;;;;;4.53;70.92;103112.66;4975792;28;45501;-53
2022/01/14 01:32:14;;;;;;;;;42.00;34.60;;;;;4.54;70.98;103112.50;4975305;28;45410;-54
2022/01/14 01:34:40;;;;;;;;;43.00;33.75;;;;;4.58;70.96;103116.75;4975931;28;45354;-54
2022/01/14 01:37:05;;;;;;;;;39.75;35.50;;;;;4.03;70.46;103030.13;4958625;28;45306;-53
2022/01/14 01:39:33;;;;;;;;;35.00;29.25;;;;;4.41;70.85;103090.81;4976134;28;46101;-50
2022/01/14 01:42:00;;;;;;;;;40.40;32.00;;;;;4.58;70.86;103119.47;4975820;28;45239;-48
2022/01/14 01:44:26;;;;;;;;;36.60;30.40;;;;;4.59;70.13;103115.75;4976070;28;45415;-49
2022/01/14 01:46:52;;;;;;;;;40.00;33.00;;;;;4.59;70.82;103121.19;4958778;28;45533;-49
2022/01/14 01:49:21;;;;;;;;;42.20;32.40;;;;;4.54;70.37;103114.38;4975618;28;46638;-51
2022/01/14 01:51:47;;;;;;;;;41.60;35.20;;;;;4.51;70.83;103101.00;4975867;28;45397;-50
2022/01/14 01:54:13;;;;;;;;;35.60;34.00;;;;;4.57;71.14;103114.13;4976176;28;45351;-51
2022/01/14 01:56:39;;;;;;;;;39.80;37.20;;;;;4.48;70.36;103104.81;4976046;28;45470;-50
2022/01/14 01:59:04;;;;;;;;;43.50;34.75;;;;;4.56;70.61;103113.28;4957673;28;45717;-51
2022/01/14 02:01:30;;;;;;;;;26.25;26.25;;;;;4.54;71.16;103108.94;4975361;28;45447;-51
2022/01/14 02:03:55;;;;;;;;;33.25;33.25;;;;;4.58;70.45;103113.16;4958386;28;45410;-51
2022/01/14 02:06:21;;;;;;;;;37.75;33.00;;;;;4.56;70.92;103109.69;4975934;28;45474;-50
2022/01/14 02:08:47;;;;;;;;;37.50;34.25;;;;;4.58;70.43;103096.81;4974942;28;46491;-52
2022/01/14 02:11:13;;;;;;;;;32.25;30.50;;;;;4.56;70.81;103093.38;4975713;28;45392;-50
2022/01/14 02:13:39;;;;;;;;;38.75;34.50;;;;;4.59;70.55;103094.00;4975113;28;45463;-50
2022/01/14 02:23:45;;;;;;;;;39.80;37.20;;;;;4.05;70.94;103016.41;4975155;28;45391;-51
2022/01/14 02:26:11;;;;;;;;;37.20;31.00;;;;;4.54;71.15;103095.34;4974932;28;45448;-53
2022/01/14 02:28:36;;;;;;;;;33.00;31.80;;;;;4.56;71.10;103096.09;4975211;28;46222;-50
2022/01/14 02:31:02;;;;;;;;;35.25;31.50;;;;;4.58;71.25;103088.66;4975272;28;45360;-54
2022/01/14 02:33:28;;;;;;;;;35.75;32.50;;;;;4.59;71.05;103090.44;4975182;28;45363;-53
2022/01/14 02:35:55;;;;;;;;;37.25;33.75;;;;;4.55;70.72;103080.75;4974942;28;45435;-49
2022/01/14 02:38:20;;;;;;;;;39.20;30.20;;;;;4.55;71.25;103078.03;4957553;28;46282;-49
2022/01/14 02:40:47;;;;;;;;;33.75;30.75;;;;;4.58;70.70;103075.94;4973334;28;45499;-51
2022/01/14 02:43:14;;;;;;;;;37.40;31.40;;;;;4.58;70.90;103064.19;4941210;28;45400;-53
2022/01/14 02:45:47;;;;;;;;;32.60;30.00;;;;;4.58;70.97;103061.47;4977644;28;45322;-50
2022/01/14 02:48:13;;;;;;;;;46.80;33.80;;;;;4.59;70.31;103071.38;4981770;28;46286;-49
2022/01/14 02:50:43;;;;;;;;;39.00;28.80;;;;;4.55;70.81;103059.00;4979370;28;45460;-51
2022/01/14 02:53:31;;;;;;;;;41.60;34.00;;;;;4.51;70.56;103063.78;4978226;28;45273;-50
2022/01/14 02:55:59;;;;;;;;;32.20;28.20;;;;;4.57;70.50;103078.78;4978777;28;45204;-53
2022/01/14 02:58:26;;;;;;;;;33.60;30.40;;;;;4.57;70.97;103070.63;4962323;28;45610;-54
2022/01/14 03:00:52;;;;;;;;;36.80;31.60;;;;;4.57;71.36;103067.91;4981763;28;45486;-52
2022/01/14 03:03:22;;;;;;;;;35.80;31.60;;;;;4.57;70.34;103065.16;4955455;28;45660;-50
2022/01/14 03:05:48;;;;;;;;;33.40;29.80;;;;;4.55;71.16;103053.56;4996321;28;45400;-52
2022/01/14 03:08:13;;;;;;;;;44.50;34.75;;;;;4.55;70.93;103042.66;4989388;28;46183;-52
2022/01/14 03:10:39;;;;;;;;;41.75;35.75;;;;;4.51;70.15;103050.19;4995961;28;45360;-54
2022/01/14 03:13:04;;;;;;;;;42.50;34.75;;;;;4.50;70.57;103045.75;4992840;28;45321;-52
2022/01/14 03:15:30;;;;;;;;;42.50;36.00;;;;;4.54;70.61;103051.81;4996348;28;45369;-51
2022/01/14 03:17:56;;;;;;;;;42.00;34.60;;;;;4.48;71.30;103034.09;4997973;28;45335;-51
2022/01/14 03:20:48;;;;;;;;;46.25;37.75;;;;;4.52;70.76;103037.44;4996631;28;45272;-50
2022/01/14 03:23:11;;;;;;;;;37.80;34.00;;;;;4.53;70.61;103031.03;4996480;28;45430;-49
2022/01/14 03:25:48;;;;;;;;;32.40;22.40;;;;;4.50;71.27;103026.69;4997976;28;45529;-54
2022/01/14 03:28:15;;;;;;;;;41.40;34.60;;;;;4.57;71.27;103035.25;4997236;28;45778;-51
2022/01/14 03:30:40;;;;;;;;;33.40;29.00;;;;;4.24;70.63;102986.03;4997809;28;45391;-51
2022/01/14 03:33:06;;;;;;;;;36.75;29.75;;;;;4.47;70.74;103019.63;4997275;28;45344;-54
2022/01/14 03:35:31;;;;;;;;;31.50;31.50;;;;;4.56;70.45;103038.97;4997477;28;45323;-54
2022/01/14 03:37:57;;;;;;;;;35.75;32.00;;;;;4.33;70.78;103004.34;4977383;28;47314;-50
2022/01/14 03:40:22;;;;;;;;;35.50;29.00;;;;;4.55;71.15;103042.66;4977588;28;45295;-52
2022/01/14 03:42:48;;;;;;;;;40.50;33.00;;;;;4.55;71.54;103042.66;4959909;28;45475;-51
2022/01/14 03:45:14;;;;;;;;;41.75;35.25;;;;;4.51;71.34;103038.44;4977989;28;45347;-51
2022/01/14 03:47:39;;;;;;;;;40.75;33.00;;;;;4.50;71.61;103039.41;4977465;28;46090;-51
2022/01/14 03:50:05;;;;;;;;;36.50;35.50;;;;;4.53;71.51;103044.66;4960028;28;45325;-52
2022/01/14 03:52:31;;;;;;;;;40.50;37.00;;;;;4.35;70.73;103006.97;4977252;28;45384;-49
2022/01/14 03:54:57;;;;;;;;;43.60;32.00;;;;;4.29;71.02;102985.66;4960415;28;45211;-53
2022/01/14 03:57:22;;;;;;;;;41.25;34.50;;;;;4.52;70.82;103027.44;4959278;28;48196;-54
2022/01/14 03:59:48;;;;;;;;;36.00;32.00;;;;;4.54;71.23;103030.06;4977086;28;45328;-51
2022/01/14 04:02:14;;;;;;;;;36.00;30.50;;;;;4.56;70.32;103030.81;4977597;28;45372;-50
2022/01/14 04:04:40;;;;;;;;;40.80;33.00;;;;;4.51;70.75;103013.94;4962124;28;45368;-54
2022/01/14 04:07:06;;;;;;;;;35.75;30.25;;;;;4.57;71.35;103030.69;4903686;28;45725;-52
2022/01/14 04:09:36;;;;;;;;;36.00;31.00;;;;;4.05;70.71;102937.56;4977298;28;45498;-51
2022/01/14 04:12:03;;;;;;;;;36.60;31.60;;;;;4.57;71.30;103019.81;4977298;28;45419;-52
2022/01/14 04:16:54;;;;;;;;;34.50;30.50;;;;;3.98;70.57;102934.47;4959644;28;45607;-54
2022/01/14 04:19:20;;;;;;;;;37.25;34.50;;;;;4.54;71.56;103025.47;4977498;28;45309;-49
2022/01/14 04:21:45;;;;;;;;;40.00;32.50;;;;;4.46;71.06;103014.31;4976555;28;45359;-55
2022/01/14 04:24:11;;;;;;;;;37.75;31.75;;;;;4.33;70.67;102998.06;4943676;28;45581;-51
2022/01/14 04:26:36;;;;;;;;;30.50;23.25;;;;;4.26;70.64;102986.75;4976954;28;46404;-49
2022/01/14 04:29:02;;;;;;;;;33.25;32.00;;;;;4.18;70.86;102962.00;4977115;28;45387;-51
2022/01/14 04:31:27;;;;;;;;;31.75;28.75;;;;;4.32;71.25;102980.88;4977239;28;45375;-51
2022/01/14 04:33:53;;;;;;;;;42.25;38.25;;;;;4.46;71.68;103004.31;4943422;28;45587;-49
2022/01/14 04:36:18;;;;;;;;;35.00;33.75;;;;;4.53;71.37;103007.41;4976891;28;45593;-49
2022/01/14 04:38:44;;;;;;;;;37.25;34.50;;;;;4.32;70.87;102974.56;4976865;28;45297;-52
2022/01/14 04:41:09;;;;;;;;;43.25;39.00;;;;;4.18;71.05;102960.13;4985012;28;45257;-50
2022/01/14 04:43:35;;;;;;;;;41.50;37.00;;;;;4.48;71.03;102998.72;4982710;28;45368;-51
2022/01/14 04:48:27;;;;;;;;;38.75;36.25;;;;;4.45;70.99;102996.25;4975243;28;45388;-53
2022/01/14 04:50:53;;;;;;;;;35.00;29.60;;;;;4.43;71.23;102993.66;4976560;28;45440;-52
2022/01/14 04:53:19;;;;;;;;;51.25;42.50;;;;;4.37;70.23;102991.38;4976840;28;45406;-52
2022/01/14 04:55:45;;;;;;;;;43.50;35.50;;;;;4.32;71.25;102988.16;4976600;28;46801;-49
2022/01/14 04:58:10;;;;;;;;;41.75;37.50;;;;;4.31;70.58;102986.41;4976839;28;45393;-50
2022/01/14 05:00:37;;;;;;;;;40.75;32.75;;;;;4.28;70.99;102984.78;4976452;28;45423;-53
2022/01/14 05:03:03;;;;;;;;;43.40;41.60;;;;;4.30;70.26;102984.69;4976193;28;45436;-51
2022/01/14 05:05:33;;;;;;;;;40.00;32.50;;;;;4.31;70.63;102990.00;4969646;28;46635;-51
2022/01/14 05:07:59;;;;;;;;;44.40;38.80;;;;;4.29;70.97;102999.25;4958551;28;45472;-50
2022/01/14 05:12:50;;;;;;;;;40.75;34.25;;;;;4.25;70.83;102993.19;4976088;28;45313;-52
2022/01/14 05:15:16;;;;;;;;;49.00;35.50;;;;;4.26;70.55;102986.75;4975993;28;46631;-51
2022/01/14 05:17:41;;;;;;;;;39.60;36.60;;;;;4.23;70.99;102987.00;4976159;28;45472;-51
2022/01/14 05:20:08;;;;;;;;;42.25;35.00;;;;;4.26;70.79;102991.34;4975599;28;45395;-52
2022/01/14 05:22:33;;;;;;;;;42.20;38.40;;;;;4.27;70.69;102993.06;4958760;28;45324;-50
2022/01/14 05:24:59;;;;;;;;;43.25;34.50;;;;;4.28;70.73;102995.66;4975609;28;45394;-52
2022/01/14 05:27:24;;;;;;;;;41.50;36.75;;;;;4.22;70.41;102992.53;4976105;28;45433;-54
2022/01/14 05:29:50;;;;;;;;;43.00;31.00;;;;;4.22;71.13;102989.81;4958580;28;45364;-56
2022/01/14 05:32:16;;;;;;;;;38.00;30.00;;;;;3.92;70.73;102941.25;4976401;28;45328;-56
2022/01/14 05:34:44;;;;;;;;;47.25;36.25;;;;;4.03;70.63;102956.75;4958249;28;45628;-52
2022/01/14 05:37:10;;;;;;;;;38.00;33.20;;;;;4.22;70.56;102997.97;4975353;28;45316;-55
2022/01/14 05:39:35;;;;;;;;;39.75;28.00;;;;;3.80;70.30;102934.00;4975676;28;45364;-54
2022/01/14 05:42:01;;;;;;;;;35.50;32.00;;;;;4.21;70.25;103005.25;4976090;28;45437;-53
2022/01/14 05:44:28;;;;;;;;;32.75;28.25;;;;;4.14;70.13;103003.97;4975262;28;46138;-50
2022/01/14 05:46:54;;;;;;;;;42.80;37.40;;;;;4.16;71.11;103004.75;4974162;28;45504;-54
2022/01/14 05:49:20;;;;;;;;;43.20;39.40;;;;;3.56;70.50;102906.78;4974131;28;45879;-51
2022/01/14 05:51:45;;;;;;;;;41.50;34.00;;;;;4.20;70.19;103008.97;4975921;28;45436;-49
2022/01/14 05:54:11;;;;;;;;;43.25;33.00;;;;;3.95;70.75;102974.59;4973640;28;46584;-52
2022/01/14 05:56:37;;;;;;;;;40.00;36.75;;;;;4.15;70.75;103003.00;4974267;28;45381;-53
2022/01/14 05:59:02;;;;;;;;;43.25;37.00;;;;;4.22;70.83;103014.28;4975414;28;45350;-51
2022/01/14 06:01:30;;;;;;;;;38.75;31.75;;;;;4.19;70.30;103016.28;4958012;28;45565;-52
2022/01/14 06:03:56;;;;;;;;;38.80;33.00;;;;;3.97;70.96;102978.06;4958128;28;48051;-50
2022/01/14 06:06:22;;;;;;;;;42.20;38.00;;;;;4.20;70.93;103008.97;4974317;28;45453;-52
2022/01/14 06:08:49;;;;;;;;;37.50;33.50;;;;;4.20;70.62;103014.41;4975359;28;45792;-51
2022/01/14 06:11:15;;;;;;;;;30.60;30.20;;;;;3.95;70.81;102958.28;4975924;28;45617;-52
2022/01/14 06:13:40;;;;;;;;;37.25;35.75;;;;;4.20;70.41;103006.25;4958268;28;46082;-48
2022/01/14 06:16:06;;;;;;;;;42.25;37.25;;;;;4.20;70.34;102998.09;4975772;28;45331;-53
2022/01/14 06:18:31;;;;;;;;;37.75;29.75;;;;;4.15;70.79;102993.00;4957987;28;45405;-51
2022/01/14 06:20:57;;;;;;;;;39.75;31.25;;;;;4.21;70.90;102999.81;4974807;28;45357;-51
2022/01/14 06:23:22;;;;;;;;;36.25;31.50;;;;;4.17;71.39;102995.63;4975041;28;45467;-52
2022/01/14 06:25:48;;;;;;;;;38.75;31.75;;;;;4.22;71.49;102997.97;4975846;28;45300;-52
2022/01/14 06:28:13;;;;;;;;;31.75;29.25;;;;;4.22;70.94;102998.88;4977783;28;45305;-52
2022/01/14 06:30:39;;;;;;;;;47.25;37.25;;;;;4.23;70.67;103000.59;4975512;28;45345;-51
2022/01/14 06:33:04;;;;;;;;;37.75;36.50;;;;;3.65;71.76;102908.81;4975416;28;45732;-49
2022/01/14 06:35:30;;;;;;;;;38.50;35.25;;;;;3.73;70.98;102922.69;4978605;28;45324;-54
2022/01/14 06:37:57;;;;;;;;;50.50;37.75;;;;;4.22;70.62;103014.28;4978541;28;45546;-50
2022/01/14 06:40:23;;;;;;;;;42.60;35.00;;;;;3.97;70.67;102970.78;4975050;28;45483;-51
2022/01/14 06:42:49;;;;;;;;;44.00;34.25;;;;;4.24;70.88;103005.03;4975136;28;46898;-52
2022/01/14 06:45:15;;;;;;;;;39.20;36.00;;;;;4.23;70.84;102997.00;4975108;28;45473;-50
2022/01/14 06:47:40;;;;;;;;;42.75;33.75;;;;;4.23;71.38;102999.72;4957748;28;45521;-50
2022/01/14 06:50:06;;;;;;;;;41.50;36.00;;;;;4.20;71.02;103000.81;4975116;28;45618;-52
2022/01/14 06:52:32;;;;;;;;;39.50;35.50;;;;;4.22;71.69;103003.41;4975060;28;46523;-53
2022/01/14 06:54:57;;;;;;;;;31.50;25.00;;;;;3.73;70.77;102922.69;4975120;28;45343;-51
2022/01/14 06:57:24;;;;;;;;;38.00;30.75;;;;;4.17;71.57;102993.75;4975420;28;45384;-49
2022/01/14 06:59:49;;;;;;;;;32.20;31.60;;;;;4.24;71.50;102993.28;4957713;28;45542;-52
2022/01/14 07:02:15;;;;;;;;;48.75;42.25;;;;;4.23;71.14;102997.00;4975282;28;46153;-51
2022/01/14 07:04:40;;;;;;;;;42.75;35.00;;;;;4.10;71.00;102973.44;4974860;28;45214;-51
2022/01/14 07:07:06;;;;;;;;;41.00;37.00;;;;;4.27;71.75;102993.06;4974826;28;45446;-50
2022/01/14 07:09:34;;;;;;;;;38.00;33.75;;;;;4.26;71.83;102989.47;4957564;28;45341;-49
2022/01/14 07:12:01;;;;;;;;;38.60;34.00;;;;;4.25;70.84;102995.03;4956905;28;45832;-48
2022/01/14 07:14:27;;;;;;;;;32.80;30.00;;;;;3.53;70.81;102869.84;4957070;28;45394;-50
2022/01/14 07:16:53;;;;;;;;;36.25;34.50;;;;;4.25;70.98;102986.88;4957151;28;45390;-54
2022/01/14 07:19:22;;;;;;;;;38.75;35.25;;;;;4.25;71.43;102976.88;4975246;28;45191;-51
2022/01/14 07:21:48;;;;;;;;;37.60;30.00;;;;;4.25;71.25;102984.16;4974319;28;47057;-50
2022/01/14 07:24:13;;;;;;;;;33.75;25.75;;;;;4.25;71.23;102982.31;4974796;28;45672;-49
2022/01/14 07:26:42;;;;;;;;;40.50;33.00;;;;;4.25;71.28;102986.88;4974693;28;45446;-48
2022/01/14 07:29:07;;;;;;;;;42.40;33.60;;;;;4.23;71.33;102973.41;4974530;28;45334;-52
2022/01/14 07:31:33;;;;;;;;;37.75;34.75;;;;;4.22;70.84;102976.25;4976125;28;45364;-50
2022/01/14 07:33:58;;;;;;;;;35.25;32.75;;;;;4.20;70.89;102982.66;4960015;28;45373;-52
2022/01/14 07:36:24;;;;;;;;;36.25;32.75;;;;;4.21;70.94;102986.22;4977579;28;45277;-55
2022/01/14 07:38:50;;;;;;;;;42.50;32.00;;;;;4.25;70.92;102989.59;4959860;28;45627;-53
2022/01/14 07:41:15;;;;;;;;;47.00;34.50;;;;;4.08;71.25;102953.69;4977254;28;45392;-52
2022/01/14 07:43:45;;;;;;;;;42.75;37.75;;;;;4.04;71.24;102941.28;4977645;28;45340;-52
2022/01/14 07:46:11;;;;;;;;;38.00;35.60;;;;;4.24;71.14;102979.69;4976251;28;45412;-53
2022/01/14 07:48:36;;;;;;;;;39.50;33.00;;;;;4.05;71.25;102953.88;4977935;28;45146;-50
2022/01/14 07:51:02;;;;;;;;;35.75;30.50;;;;;3.91;70.69;102931.31;4933352;28;47760;-51
2022/01/14 07:53:27;;;;;;;;;40.75;38.00;;;;;4.24;70.59;102986.03;4975862;28;45362;-51
2022/01/14 07:55:53;;;;;;;;;39.50;33.50;;;;;4.25;70.94;102997.75;4976887;28;45286;-53
2022/01/14 07:58:18;;;;;;;;;43.00;35.50;;;;;4.28;70.73;103000.25;4978080;28;45419;-51
2022/01/14 08:00:44;;;;;;;;;47.25;37.00;;;;;4.30;70.70;102996.44;4977327;28;45233;-49
2022/01/14 08:03:09;;;;;;;;;46.75;39.25;;;;;4.32;71.21;103001.75;4977374;28;45277;-53
2022/01/14 08:05:35;;;;;;;;;41.25;34.75;;;;;4.27;71.03;102993.06;4977678;28;45294;-52
2022/01/14 08:08:04;;;;;;;;;42.00;38.25;;;;;4.33;71.23;102998.06;4976315;28;45365;-49
2022/01/14 08:10:31;;;;;;;;;39.60;34.20;;;;;4.35;70.32;103004.25;4977428;28;46220;-51
2022/01/14 08:12:56;;;;;;;;;34.60;28.40;;;;;4.38;70.18;102992.28;4978115;28;45257;-50
2022/01/14 08:15:23;;;;;;;;;35.25;29.75;;;;;4.40;71.18;103002.06;4977476;28;45315;-49
2022/01/14 08:17:49;;;;;;;;;42.60;32.20;;;;;4.36;70.22;102999.69;4977917;28;45398;-53
2022/01/14 08:20:14;;;;;;;;;38.00;33.25;;;;;4.32;70.39;102994.47;4959567;28;45577;-55
2022/01/14 08:22:39;;;;;;;;;36.00;33.50;;;;;4.39;70.58;103005.75;4977506;28;45369;-51
2022/01/14 08:25:05;;;;;;;;;33.50;32.50;;;;;4.38;70.17;103004.00;4976813;28;45336;-54
2022/01/14 08:27:31;;;;;;;;;47.60;35.40;;;;;4.36;70.67;103000.53;4977450;28;45443;-51
2022/01/14 08:29:57;;;;;;;;;35.50;34.25;;;;;4.37;70.22;103004.13;4964220;28;46400;-54
2022/01/14 08:32:22;;;;;;;;;37.25;32.25;;;;;4.43;70.43;103012.69;4976863;28;45392;-51
2022/01/14 08:34:49;;;;;;;;;40.75;35.00;;;;;4.45;69.74;103013.47;4977336;28;45332;-53
2022/01/14 08:37:14;;;;;;;;;41.00;36.40;;;;;4.45;69.99;103005.31;5350131;22;46032;-60
2022/01/14 08:39:40;;;;;;;;;50.25;41.25;;;;;4.30;70.54;102981.97;4960033;28;47182;-59
2022/01/14 08:42:09;;;;;;;;;47.00;34.25;;;;;4.52;69.76;103012.97;4969402;28;45432;-58
2022/01/14 08:44:36;;;;;;;;;39.80;33.40;;;;;4.48;70.14;103005.06;4974246;28;45804;-60
2022/01/14 08:47:05;;;;;;;;;46.80;38.00;;;;;4.57;69.19;103016.22;4971501;28;46168;-54
2022/01/14 08:49:31;;;;;;;;;43.80;34.00;;;;;4.56;70.03;103006.31;4977443;28;45593;-59
2022/01/14 08:51:57;;;;;;;;;33.00;32.00;;;;;4.56;69.82;103011.75;4955510;28;45700;-55
2022/01/14 08:54:22;;;;;;;;;39.75;34.50;;;;;4.57;69.30;103010.78;4986289;28;45685;-52
2022/01/14 08:56:48;;;;;;;;;30.75;25.50;;;;;4.40;69.91;102985.75;4993246;28;45556;-59
2022/01/14 08:59:17;;;;;;;;;39.25;36.25;;;;;4.60;69.65;103014.13;4991108;28;47133;-54
2022/01/14 09:01:42;;;;;;;;;46.60;39.80;;;;;4.62;68.98;103011.28;4990735;28;45914;-60
2022/01/14 09:04:08;;;;;;;;;38.75;30.50;;;;;4.63;69.65;103004.03;4949185;28;45838;-57
2022/01/14 09:06:34;;;;;;;;;41.25;33.75;;;;;4.49;68.72;102981.44;4978466;28;45826;-56
2022/01/14 09:08:59;;;;;;;;;40.50;37.50;;;;;4.64;69.64;103000.31;4958014;28;46530;-59
2022/01/14 09:11:24;;;;;;;;;33.75;31.75;;;;;4.52;69.17;102975.78;4952053;28;45807;-49
2022/01/14 09:13:50;;;;;;;;;48.75;38.00;;;;;4.67;69.23;102997.34;4939142;28;45471;-53
2022/01/14 09:16:20;;;;;;;;;52.00;40.75;;;;;4.54;68.62;102983.81;4953912;28;45551;-55
2022/01/14 09:18:45;;;;;;;;;45.20;39.80;;;;;4.70;69.05;103003.41;4952936;28;45847;-54
2022/01/14 09:21:11;;;;;;;;;46.00;38.25;;;;;4.70;68.22;103002.56;4953311;28;45399;-55
2022/01/14 09:23:37;;;;;;;;;44.75;36.25;;;;;4.72;68.04;103003.31;4966156;28;45428;-52
2022/01/14 09:26:03;;;;;;;;;42.50;40.00;;;;;4.74;68.08;103004.91;4951915;28;45472;-55
2022/01/14 09:28:29;;;;;;;;;45.00;39.00;;;;;4.72;68.56;102998.75;4951475;28;46657;-55
2022/01/14 09:30:54;;;;;;;;;40.75;34.75;;;;;4.76;68.25;102996.66;4952032;28;45469;-52
2022/01/14 09:33:21;;;;;;;;;48.75;41.00;;;;;4.75;68.69;103001.22;4952153;28;45734;-56
2022/01/14 09:35:47;;;;;;;;;50.25;41.00;;;;;4.81;68.21;102988.97;4953220;28;45910;-56
2022/01/14 09:38:12;;;;;;;;;37.50;32.00;;;;;4.64;68.41;102963.06;4958631;28;45768;-55
2022/01/14 09:40:40;;;;;;;;;53.25;43.00;;;;;4.80;68.15;102986.41;4958637;28;45486;-52
2022/01/14 09:43:06;;;;;;;;;51.20;39.20;;;;;4.87;67.62;102991.22;4987030;28;45519;-53
2022/01/14 09:45:33;;;;;;;;;40.00;38.75;;;;;4.85;67.27;102985.03;4972674;28;45431;-53
2022/01/14 09:47:59;;;;;;;;;52.80;42.80;;;;;4.91;67.99;102985.56;4963430;28;47186;-52
2022/01/14 09:50:25;;;;;;;;;51.00;42.75;;;;;4.88;67.42;102982.09;4952601;28;45824;-55
2022/01/14 09:52:51;;;;;;;;;46.60;39.60;;;;;4.97;67.89;102990.53;4987910;28;45899;-58
2022/01/14 09:55:18;;;;;;;;;53.40;42.60;;;;;4.99;67.88;102996.72;5007156;28;45517;-56
2022/01/14 09:57:44;;;;;;;;;53.80;44.20;;;;;4.95;67.17;102995.19;4991226;28;45842;-57
2022/01/14 10:00:10;;;;;;;;;47.75;41.75;;;;;5.04;66.53;103005.41;5007111;28;45550;-54
2022/01/14 10:02:40;;;;;;;;;63.40;49.40;;;;;5.03;67.24;103003.66;4982215;28;45525;-55
2022/01/14 10:05:07;;;;;;;;;48.00;41.20;;;;;5.07;66.99;103010.59;4972406;28;45913;-59
2022/01/14 10:07:33;;;;;;;;;50.60;40.80;;;;;5.09;66.72;103016.81;4972204;28;46716;-58
2022/01/14 10:10:01;;;;;;;;;54.75;44.25;;;;;5.06;66.44;102997.13;4971860;28;45927;-51
2022/01/14 10:12:33;;;;;;;;;55.20;40.20;;;;;5.25;66.68;103023.75;4986919;28;45557;-54
2022/01/14 10:15:02;;;;;;;;;56.25;43.00;;;;;5.12;65.53;102989.31;4959724;28;45483;-56
2022/01/14 10:17:36;;;;;;;;;52.00;43.60;;;;;5.26;66.32;103020.91;4951394;28;47015;-53
2022/01/14 10:20:40;;;;;;;;;49.60;43.20;;;;;5.26;65.51;103023.66;4922613;28;45468;-52
2022/01/14 10:23:06;;;;;;;;;59.20;44.20;;;;;5.07;65.55;102987.97;4985186;28;46158;-54
2022/01/14 10:25:31;;;;;;;;;48.50;39.25;;;;;5.23;65.57;103004.81;4991692;28;45378;-54
2022/01/14 10:27:57;;;;;;;;;51.75;42.50;;;;;5.22;65.73;103013.97;4984895;28;47092;-51
2022/01/14 10:30:28;;;;;;;;;58.50;47.00;;;;;5.25;65.09;103021.91;4990614;28;45426;-52
2022/01/14 10:32:55;;;;;;;;;56.50;44.00;;;;;5.20;65.13;103002.34;4990755;28;45508;-57
2022/01/14 10:35:21;;;;;;;;;52.00;44.25;;;;;5.19;64.82;103008.78;4990702;28;45424;-54
2022/01/14 10:37:47;;;;;;;;;49.00;43.25;;;;;5.18;65.47;102990.69;4990350;28;46898;-57
2022/01/14 10:40:16;;;;;;;;;54.75;41.75;;;;;5.27;64.92;103006.31;4972486;28;45845;-51
2022/01/14 10:42:42;;;;;;;;;51.40;45.00;;;;;5.29;65.01;103008.91;4970444;28;45454;-52
2022/01/14 10:45:19;;;;;;;;;52.75;42.25;;;;;5.13;65.75;102977.44;4969752;28;45459;-49
2022/01/14 10:48:04;;;;;;;;;54.00;44.50;;;;;5.37;65.06;103000.13;4975446;28;47419;-52
2022/01/14 10:50:54;;;;;;;;;64.20;50.60;;;;;5.39;65.43;102993.56;4943373;28;46113;-58
2022/01/14 10:53:36;;;;;;;;;59.60;47.00;;;;;5.43;65.29;102991.47;4949989;28;45759;-53
2022/01/14 10:56:09;;;;;;;;;63.50;51.25;;;;;5.27;65.06;102957.28;4919104;28;45975;-54
2022/01/14 10:58:36;;;;;;;;;60.25;45.50;;;;;5.25;64.89;102953.84;4949452;28;46387;-55
2022/01/14 11:01:01;;;;;;;;;62.20;47.00;;;;;5.49;65.36;102980.09;4950603;28;45582;-55
2022/01/14 11:03:40;;;;;;;;;54.00;45.75;;;;;5.54;65.13;102990.59;4950470;28;45918;-53
2022/01/14 11:06:23;;;;;;;;;63.25;47.25;;;;;5.22;64.89;102921.38;4952716;28;45801;-53
2022/01/14 11:09:23;;;;;;;;;56.00;47.00;;;;;5.57;64.36;102971.31;4974253;28;46573;-55
2022/01/14 11:11:49;;;;;;;;;63.00;48.80;;;;;5.41;64.87;102948.00;4973990;28;45478;-57
2022/01/14 11:14:15;;;;;;;;;52.80;46.40;;;;;5.57;63.45;102977.59;4956894;28;45416;-55
2022/01/14 11:16:41;;;;;;;;;66.50;50.25;;;;;5.65;64.42;102971.53;4955948;28;45837;-49
2022/01/14 11:19:08;;;;;;;;;66.00;49.75;;;;;5.66;63.62;102969.69;4953334;28;46882;-59
2022/01/14 11:24:23;;;;;;;;;67.40;50.60;;;;;5.71;64.49;102964.72;4954805;28;45447;-56
2022/01/14 11:26:49;;;;;;;;;64.50;49.25;;;;;5.78;63.69;102965.09;4954547;28;45541;-53
2022/01/14 11:29:17;;;;;;;;;51.40;44.20;;;;;5.80;62.79;102957.66;4958647;28;45817;-56
2022/01/14 11:31:43;;;;;;;;;58.60;44.20;;;;;5.86;62.85;102962.59;4992734;28;45422;-52
2022/01/14 11:34:11;;;;;;;;;61.75;47.75;;;;;5.95;63.38;102966.44;4957105;28;45483;-55
2022/01/14 11:36:59;;;;;;;;;60.50;50.25;;;;;7.12;61.48;102949.34;5007109;28;45488;-51
2022/01/14 11:39:25;;;;;;;;;59.25;45.25;;;;;10.29;54.94;102939.88;4984827;28;46245;-57
2022/01/14 11:41:55;;;;;;;;;63.60;49.60;;;;;14.61;44.67;102899.78;4973614;28;45976;-56
2022/01/14 11:44:52;;;;;;;;;59.80;43.60;;;;;18.52;37.69;102918.25;4972936;28;45476;-51